Time;durP1;ratioP1;P1;durP2;ratioP2;P2;SDS_P1;SDS_P2;PMS_P1;PMS_P2;Temp;Humidity;BMP_temperature;BMP_pressure;BME280_temperature;BME280_humidity;BME280_pressure;Samples;Min_cycle;Max_cycle;Signal;HPM_P1;HPM_P2
2022/10/17 00:02:22;;;;;;;15.57;3.58;;;12.40;99.90;;;;;;5043923;28;20079;-64
2022/10/17 00:04:48;;;;;;;14.25;3.65;;;12.40;99.90;;;;;;5058769;28;20043;-64
2022/10/17 00:07:14;;;;;;;16.52;3.53;;;12.40;99.90;;;;;;5059942;28;20322;-64
2022/10/17 00:09:43;;;;;;;12.77;3.60;;;12.40;99.90;;;;;;5060185;28;20055;-64
2022/10/17 00:12:09;;;;;;;17.92;3.90;;;12.70;99.90;;;;;;5059809;28;20040;-65
2022/10/17 00:14:35;;;;;;;13.23;3.60;;;12.60;99.90;;;;;;5043925;28;20051;-65
2022/10/17 00:17:01;;;;;;;13.05;3.17;;;12.90;99.90;;;;;;5060395;28;20335;-67
2022/10/17 00:19:27;;;;;;;13.68;3.72;;;12.90;99.90;;;;;;5040827;28;20445;-64
2022/10/17 00:21:52;;;;;;;13.57;3.88;;;12.60;99.90;;;;;;5059889;28;20083;-64
2022/10/17 00:24:18;;;;;;;13.77;3.45;;;12.60;99.90;;;;;;5042960;28;20044;-64
2022/10/17 00:26:44;;;;;;;12.93;3.13;;;12.90;99.90;;;;;;5059925;28;20482;-65
2022/10/17 00:29:09;;;;;;;13.57;3.00;;;13.10;99.90;;;;;;5008084;28;20569;-65
2022/10/17 00:31:35;;;;;;;13.52;2.83;;;13.00;99.90;;;;;;5028758;28;20090;-64
2022/10/17 00:34:00;;;;;;;12.82;2.40;;;12.70;99.90;;;;;;5059036;28;20106;-64
2022/10/17 00:36:26;;;;;;;13.95;2.67;;;13.00;99.90;;;;;;5034662;28;20094;-65
2022/10/17 00:38:55;;;;;;;6.05;1.48;;;13.10;99.90;;;;;;5058546;28;20048;-63
2022/10/17 00:41:27;;;;;;;6.78;1.98;;;12.80;99.90;;;;;;5058557;28;20482;-64
2022/10/17 00:44:03;;;;;;;14.80;3.17;;;13.00;99.90;;;;;;5059408;28;20790;-65
2022/10/17 00:46:31;;;;;;;11.70;2.50;;;13.20;99.90;;;;;;5059421;28;20040;-66
2022/10/17 00:49:03;;;;;;;12.18;3.05;;;12.90;99.90;;;;;;5059589;28;20190;-66
2022/10/17 00:51:44;;;;;;;10.77;2.33;;;13.20;99.90;;;;;;5058789;28;20431;-64
2022/10/17 00:54:11;;;;;;;13.45;3.63;;;13.00;99.90;;;;;;5058924;28;20052;-64
2022/10/17 00:56:39;;;;;;;14.73;4.05;;;12.90;99.90;;;;;;5043753;28;20091;-65
2022/10/17 00:59:07;;;;;;;15.40;3.83;;;12.80;99.90;;;;;;5059552;28;20511;-65
2022/10/17 01:01:33;;;;;;;10.15;3.60;;;12.70;99.90;;;;;;5058094;28;20075;-65
2022/10/17 01:03:59;;;;;;;12.88;3.70;;;12.50;99.90;;;;;;5059729;28;20032;-64
2022/10/17 01:06:25;;;;;;;16.23;3.92;;;12.80;99.90;;;;;;5043669;28;20109;-65
2022/10/17 01:08:51;;;;;;;11.65;3.35;;;12.50;99.90;;;;;;5058736;28;20039;-66
2022/10/17 01:11:31;;;;;;;14.75;3.83;;;12.40;99.90;;;;;;5034561;28;20040;-65
2022/10/17 01:14:31;;;;;;;13.05;3.22;;;12.50;99.90;;;;;;5057307;28;20505;-66
2022/10/17 01:17:14;;;;;;;14.63;3.67;;;12.50;99.90;;;;;;5057142;28;20045;-64
2022/10/17 01:19:43;;;;;;;15.30;3.72;;;12.90;99.90;;;;;;5058353;28;20045;-65
2022/10/17 01:22:12;;;;;;;14.15;3.53;;;13.10;99.90;;;;;;5058265;28;20475;-65
2022/10/17 01:24:53;;;;;;;13.52;3.22;;;13.00;99.90;;;;;;5059871;28;20057;-65
2022/10/17 01:27:41;;;;;;;10.98;3.72;;;13.00;99.90;;;;;;5074512;28;20064;-64
2022/10/17 01:30:16;;;;;;;13.75;3.38;;;13.30;99.90;;;;;;5060042;28;20103;-66
2022/10/17 01:32:55;;;;;;;11.85;3.42;;;13.10;99.90;;;;;;5059147;28;20071;-64
2022/10/17 01:36:07;;;;;;;8.50;3.10;;;13.30;99.90;;;;;;5059215;28;20518;-65
2022/10/17 01:38:49;;;;;;;12.88;4.32;;;13.40;99.90;;;;;;5030630;28;20041;-66
2022/10/17 01:41:24;;;;;;;11.57;4.05;;;13.50;99.90;;;;;;5022279;28;20045;-67
2022/10/17 01:43:57;;;;;;;10.82;3.75;;;13.40;99.90;;;;;;5044149;28;20173;-64
2022/10/17 01:46:36;;;;;;;12.10;3.63;;;13.40;99.90;;;;;;5042523;28;20144;-65
2022/10/17 01:49:04;;;;;;;9.00;3.40;;;13.20;99.90;;;;;;5057745;28;20056;-65
2022/10/17 01:51:45;;;;;;;12.38;3.50;;;13.60;99.90;;;;;;5059581;28;20418;-65
2022/10/17 01:54:24;;;;;;;9.45;3.53;;;13.60;99.90;;;;;;5057605;28;20056;-65
2022/10/17 01:56:56;;;;;;;12.48;3.67;;;13.70;99.90;;;;;;5056962;28;20063;-65
2022/10/17 01:59:30;;;;;;;10.15;3.75;;;13.50;99.90;;;;;;5058360;28;20040;-64
2022/10/17 02:01:58;;;;;;;10.70;4.22;;;13.50;99.90;;;;;;5041317;28;20494;-65
2022/10/17 02:04:24;;;;;;;12.45;5.03;;;13.40;99.90;;;;;;5041360;28;20044;-65
2022/10/17 02:06:50;;;;;;;13.77;5.85;;;13.20;99.90;;;;;;5036433;28;20079;-65
2022/10/17 02:09:21;;;;;;;14.60;5.82;;;13.60;99.90;;;;;;5025744;28;20076;-65
2022/10/17 02:12:16;;;;;;;14.93;6.40;;;13.30;99.90;;;;;;5059769;28;20465;-66
2022/10/17 02:14:45;;;;;;;13.57;5.53;;;13.50;99.90;;;;;;5011005;28;20060;-66
2022/10/17 02:17:29;;;;;;;11.45;5.63;;;13.20;99.90;;;;;;5056411;28;20456;-65
2022/10/17 02:20:16;;;;;;;12.07;5.80;;;13.50;99.90;;;;;;5032591;28;20040;-65
2022/10/17 02:23:14;;;;;;;18.23;6.35;;;13.50;99.90;;;;;;5059408;28;20044;-65
2022/10/17 02:25:55;;;;;;;11.45;5.80;;;13.40;99.90;;;;;;5036839;28;20422;-64
2022/10/17 02:28:38;;;;;;;9.60;5.43;;;13.40;99.90;;;;;;5075084;28;20502;-65
2022/10/17 02:31:13;;;;;;;16.27;6.05;;;13.60;99.90;;;;;;5058134;28;20418;-65
2022/10/17 02:34:00;;;;;;;10.25;4.70;;;13.20;99.90;;;;;;5057600;28;20091;-65
2022/10/17 02:36:30;;;;;;;10.07;4.20;;;13.50;99.90;;;;;;5057553;28;20544;-65
2022/10/17 02:38:59;;;;;;;10.90;4.65;;;13.40;99.90;;;;;;5058611;28;20051;-65
2022/10/17 02:41:25;;;;;;;8.50;4.65;;;13.50;99.90;;;;;;5041279;28;20398;-65
2022/10/17 02:43:52;;;;;;;12.75;5.50;;;13.10;99.90;;;;;;5057323;28;20094;-64
2022/10/17 02:46:22;;;;;;;12.65;6.20;;;13.40;99.90;;;;;;5041471;28;20098;-65
2022/10/17 02:48:55;;;;;;;10.98;6.32;;;13.40;99.90;;;;;;5058637;28;20111;-65
2022/10/17 02:51:36;;;;;;;13.68;6.68;;;13.00;99.90;;;;;;5029752;28;20052;-65
2022/10/17 02:54:09;;;;;;;13.35;6.50;;;13.00;99.90;;;;;;5056891;28;20056;-65
2022/10/17 02:56:42;;;;;;;13.68;6.80;;;13.30;99.90;;;;;;5075340;28;20087;-65
2022/10/17 02:59:11;;;;;;;13.02;7.25;;;13.00;99.90;;;;;;5055811;28;20044;-65
2022/10/17 03:01:37;;;;;;;14.95;6.70;;;13.20;99.90;;;;;;5057257;28;20048;-66
2022/10/17 03:04:08;;;;;;;9.13;6.20;;;12.90;99.90;;;;;;5057694;28;20032;-65
2022/10/17 03:06:34;;;;;;;11.23;5.57;;;12.90;99.90;;;;;;5058161;28;20382;-65
2022/10/17 03:09:00;;;;;;;12.48;5.60;;;13.20;99.90;;;;;;5039211;28;20044;-66
2022/10/17 03:11:26;;;;;;;9.20;5.50;;;13.10;99.90;;;;;;5057544;28;20044;-65
2022/10/17 03:13:51;;;;;;;12.30;5.40;;;12.70;99.90;;;;;;5057752;28;20047;-68
2022/10/17 03:16:17;;;;;;;7.75;5.68;;;13.00;99.90;;;;;;5040636;28;20040;-65
2022/10/17 03:18:43;;;;;;;9.50;5.03;;;12.80;99.90;;;;;;5023436;28;20115;-65
2022/10/17 03:21:08;;;;;;;8.52;4.93;;;12.80;99.90;;;;;;5040548;28;20087;-64
2022/10/17 03:23:34;;;;;;;12.35;5.90;;;12.80;99.90;;;;;;5056336;28;20119;-64
2022/10/17 03:26:04;;;;;;;11.02;5.30;;;13.20;99.90;;;;;;5056881;28;20389;-66
2022/10/17 03:28:30;;;;;;;10.48;5.90;;;13.00;99.90;;;;;;5057820;28;20048;-64
2022/10/17 03:30:55;;;;;;;13.80;5.72;;;13.00;99.90;;;;;;5040212;28;20039;-64
2022/10/17 03:33:21;;;;;;;8.63;5.20;;;12.80;99.90;;;;;;5039916;28;20391;-66
2022/10/17 03:35:47;;;;;;;8.45;5.20;;;13.10;99.90;;;;;;5072704;28;20040;-65
2022/10/17 03:38:12;;;;;;;11.63;6.05;;;12.90;99.90;;;;;;5039855;28;20414;-66
2022/10/17 03:40:38;;;;;;;7.32;5.95;;;13.00;99.90;;;;;;5039826;28;20145;-65
2022/10/17 03:43:04;;;;;;;11.35;5.60;;;12.80;99.90;;;;;;5039844;28;20037;-65
2022/10/17 03:45:29;;;;;;;11.20;6.00;;;13.10;99.90;;;;;;5057284;28;20375;-67
2022/10/17 03:47:55;;;;;;;10.85;6.32;;;13.10;99.90;;;;;;5040013;28;20044;-65
2022/10/17 03:50:21;;;;;;;9.15;6.95;;;12.80;99.90;;;;;;5035452;28;20047;-65
2022/10/17 03:52:47;;;;;;;8.55;6.70;;;13.30;99.90;;;;;;5056179;28;20056;-65
2022/10/17 03:55:14;;;;;;;9.02;6.35;;;12.90;99.90;;;;;;5054701;28;20048;-66
2022/10/17 03:57:39;;;;;;;8.13;6.25;;;13.30;99.90;;;;;;5040392;28;20033;-64
2022/10/17 04:00:06;;;;;;;13.10;7.30;;;12.90;99.90;;;;;;5055875;28;20475;-65
2022/10/17 04:02:33;;;;;;;14.27;7.22;;;13.00;99.90;;;;;;5055782;28;20046;-65
2022/10/17 04:04:59;;;;;;;8.82;7.10;;;13.20;99.90;;;;;;5023548;28;20094;-64
2022/10/17 04:07:25;;;;;;;12.43;7.32;;;13.00;99.90;;;;;;5057047;28;20154;-66
2022/10/17 04:09:50;;;;;;;12.18;7.85;;;12.70;99.90;;;;;;5058304;28;20922;-68
2022/10/17 04:12:16;;;;;;;9.88;7.72;;;13.00;99.90;;;;;;5057161;28;20051;-64
2022/10/17 04:14:42;;;;;;;9.02;7.60;;;12.70;99.90;;;;;;5057423;28;20040;-64
2022/10/17 04:17:07;;;;;;;11.00;7.72;;;12.80;99.90;;;;;;5051833;28;20055;-65
2022/10/17 04:19:33;;;;;;;13.98;8.55;;;13.20;99.90;;;;;;5057575;28;20119;-66
2022/10/17 04:21:59;;;;;;;13.63;8.82;;;12.90;99.90;;;;;;5075151;28;20064;-66
2022/10/17 04:24:24;;;;;;;12.45;8.95;;;12.80;99.90;;;;;;5055512;28;20036;-65
2022/10/17 04:26:50;;;;;;;11.00;8.82;;;12.70;99.90;;;;;;5057159;28;20318;-65
2022/10/17 04:29:16;;;;;;;10.07;8.98;;;12.60;99.90;;;;;;5039335;28;20055;-65
2022/10/17 04:31:42;;;;;;;10.90;9.27;;;12.70;99.90;;;;;;5057256;28;20048;-65
2022/10/17 04:34:08;;;;;;;13.57;9.57;;;12.70;99.90;;;;;;5057936;28;20048;-65
2022/10/17 04:36:33;;;;;;;13.75;10.23;;;12.50;99.90;;;;;;5033316;28;20085;-65
2022/10/17 04:39:04;;;;;;;11.23;10.13;;;12.60;99.90;;;;;;5047738;28;20032;-65
2022/10/17 04:41:30;;;;;;;12.98;11.02;;;12.80;99.90;;;;;;5059834;28;20055;-66
2022/10/17 04:43:56;;;;;;;14.07;11.13;;;12.70;99.90;;;;;;5043737;28;20037;-65
2022/10/17 04:46:22;;;;;;;15.70;11.27;;;12.70;99.90;;;;;;5044738;28;20162;-65
2022/10/17 04:48:48;;;;;;;16.67;11.20;;;13.00;99.90;;;;;;5046234;28;20199;-64
2022/10/17 04:51:16;;;;;;;16.27;11.95;;;13.20;99.90;;;;;;5061656;28;20056;-66
2022/10/17 04:53:43;;;;;;;13.52;12.18;;;13.20;99.90;;;;;;5042947;28;20147;-68
2022/10/17 04:56:15;;;;;;;13.73;12.25;;;12.60;99.90;;;;;;5044064;28;20406;-65
2022/10/17 04:58:42;;;;;;;12.68;11.55;;;13.20;99.90;;;;;;5060233;28;20375;-65
2022/10/17 05:01:11;;;;;;;15.13;12.40;;;12.70;99.90;;;;;;5077795;28;20745;-67
2022/10/17 05:03:37;;;;;;;13.95;12.38;;;13.20;99.90;;;;;;5060273;28;20042;-64
2022/10/17 05:06:14;;;;;;;14.55;12.90;;;13.30;99.90;;;;;;5062474;28;20409;-66
2022/10/17 05:08:39;;;;;;;16.20;13.07;;;13.30;99.90;;;;;;5060637;28;20044;-64
2022/10/17 05:11:18;;;;;;;21.05;13.35;;;13.20;99.90;;;;;;5060823;28;20048;-64
2022/10/17 05:13:44;;;;;;;15.10;13.45;;;13.30;99.90;;;;;;5059138;28;20055;-66
2022/10/17 05:16:09;;;;;;;14.10;12.63;;;12.90;99.90;;;;;;5028504;28;20040;-64
2022/10/17 05:18:35;;;;;;;14.90;13.45;;;13.40;99.90;;;;;;5061743;28;20124;-65
2022/10/17 05:21:03;;;;;;;16.42;13.35;;;12.90;99.90;;;;;;5056943;28;20040;-65
2022/10/17 05:23:29;;;;;;;14.95;13.30;;;13.50;99.90;;;;;;5052541;28;20068;-66
2022/10/17 05:25:55;;;;;;;15.68;13.02;;;13.60;99.90;;;;;;5061539;28;20086;-64
2022/10/17 05:28:22;;;;;;;19.55;13.68;;;13.40;99.90;;;;;;5043801;28;20119;-64
2022/10/17 05:30:48;;;;;;;15.25;13.75;;;13.70;99.90;;;;;;5043385;28;20044;-65
2022/10/17 05:33:14;;;;;;;15.10;13.55;;;13.70;99.90;;;;;;5060935;28;20045;-65
2022/10/17 05:35:40;;;;;;;21.27;13.77;;;13.80;99.90;;;;;;5043990;28;20051;-64
2022/10/17 05:38:06;;;;;;;15.27;13.77;;;13.30;99.90;;;;;;5043669;28;20044;-64
2022/10/17 05:40:32;;;;;;;13.85;12.50;;;14.00;99.90;;;;;;5043020;28;20044;-64
2022/10/17 05:42:58;;;;;;;14.73;12.60;;;13.80;99.90;;;;;;5061703;28;20266;-65
2022/10/17 05:45:23;;;;;;;13.60;12.32;;;13.40;99.90;;;;;;5061174;28;20029;-65
2022/10/17 05:47:49;;;;;;;15.07;12.68;;;13.30;99.90;;;;;;5061094;28;20430;-64
2022/10/17 05:50:15;;;;;;;13.93;12.60;;;13.90;99.90;;;;;;5043804;28;20128;-65
2022/10/17 05:52:40;;;;;;;14.10;12.38;;;14.10;99.90;;;;;;5042363;28;20407;-65
2022/10/17 05:55:07;;;;;;;16.25;12.70;;;13.40;99.90;;;;;;5027673;28;20052;-64
2022/10/17 05:57:32;;;;;;;14.00;12.55;;;13.50;99.90;;;;;;5042365;28;20084;-65
2022/10/17 05:59:58;;;;;;;13.70;12.40;;;14.00;99.90;;;;;;5061099;28;20090;-64
2022/10/17 06:02:24;;;;;;;13.40;12.10;;;13.40;99.90;;;;;;5060044;28;20051;-65
2022/10/17 06:04:49;;;;;;;13.52;12.13;;;14.20;99.90;;;;;;5060024;28;20063;-64
2022/10/17 06:07:15;;;;;;;14.27;12.77;;;13.40;99.90;;;;;;5060448;28;20424;-65
2022/10/17 06:09:41;;;;;;;16.25;13.38;;;14.20;99.90;;;;;;5059929;28;20483;-65
2022/10/17 06:12:07;;;;;;;14.20;11.98;;;13.70;99.90;;;;;;5026621;28;20098;-65
2022/10/17 06:14:33;;;;;;;14.35;12.93;;;13.50;99.90;;;;;;5060597;28;20073;-65
2022/10/17 06:17:00;;;;;;;13.43;12.20;;;13.60;99.90;;;;;;5060203;28;20090;-65
2022/10/17 06:19:26;;;;;;;13.73;12.43;;;14.10;99.90;;;;;;5060365;28;20047;-64
2022/10/17 06:21:51;;;;;;;12.40;10.95;;;14.20;99.90;;;;;;5060293;28;20044;-64
2022/10/17 06:24:17;;;;;;;13.07;11.75;;;13.70;99.90;;;;;;5061308;28;20523;-65
2022/10/17 06:26:43;;;;;;;13.07;11.88;;;14.60;99.90;;;;;;5059296;28;20049;-65
2022/10/17 06:29:09;;;;;;;14.20;12.77;;;14.60;99.90;;;;;;5039590;28;20418;-64
2022/10/17 06:31:34;;;;;;;13.63;12.20;;;14.20;99.90;;;;;;5057331;28;20051;-65
2022/10/17 06:34:00;;;;;;;18.25;12.85;;;14.70;99.90;;;;;;5043828;28;20475;-68
2022/10/17 06:36:26;;;;;;;14.13;12.63;;;14.70;99.90;;;;;;5026894;28;20040;-65
2022/10/17 06:38:51;;;;;;;14.93;12.18;;;14.80;99.90;;;;;;5041922;28;20059;-65
2022/10/17 06:41:18;;;;;;;14.20;12.82;;;14.00;99.90;;;;;;5041115;28;20477;-64
2022/10/17 06:43:45;;;;;;;12.85;11.32;;;14.70;99.90;;;;;;5042864;28;20044;-64
2022/10/17 06:46:12;;;;;;;13.40;12.05;;;14.80;99.90;;;;;;5060151;28;20044;-65
2022/10/17 06:48:38;;;;;;;12.95;11.65;;;14.90;99.90;;;;;;5043894;28;21089;-67
2022/10/17 06:51:05;;;;;;;12.88;11.45;;;14.00;99.90;;;;;;5044553;28;20432;-65
2022/10/17 06:53:32;;;;;;;14.02;11.85;;;14.80;99.90;;;;;;5060523;28;20139;-65
2022/10/17 06:56:01;;;;;;;14.98;12.30;;;14.80;99.90;;;;;;5078084;28;21089;-65
2022/10/17 06:58:32;;;;;;;14.77;12.50;;;14.50;99.90;;;;;;5033599;28;20188;-65
2022/10/17 07:01:04;;;;;;;16.50;12.70;;;14.50;99.90;;;;;;5043414;28;20080;-67
2022/10/17 07:03:30;;;;;;;14.32;12.63;;;14.20;99.90;;;;;;5057581;28;20128;-66
2022/10/17 07:05:56;;;;;;;15.93;11.45;;;14.50;99.90;;;;;;5057923;28;20040;-65
2022/10/17 07:08:22;;;;;;;14.07;12.77;;;14.10;99.90;;;;;;5042865;28;20220;-66
2022/10/17 07:10:48;;;;;;;14.52;12.80;;;13.90;99.90;;;;;;5059354;28;20072;-65
2022/10/17 07:13:14;;;;;;;15.70;13.30;;;14.60;99.90;;;;;;5040372;28;20139;-65
2022/10/17 07:15:40;;;;;;;14.38;12.93;;;14.10;99.90;;;;;;5059202;28;20037;-65
2022/10/17 07:18:06;;;;;;;15.38;13.70;;;14.10;99.90;;;;;;5041541;28;20086;-65
2022/10/17 07:20:32;;;;;;;15.13;13.63;;;14.10;99.90;;;;;;5059070;28;20631;-66
2022/10/17 07:22:58;;;;;;;15.75;14.25;;;15.00;99.90;;;;;;5040709;28;20074;-65
2022/10/17 07:25:24;;;;;;;15.25;13.75;;;14.40;99.90;;;;;;5041506;28;20097;-66
2022/10/17 07:27:50;;;;;;;16.33;14.55;;;14.30;99.90;;;;;;5057408;28;20482;-65
2022/10/17 07:30:16;;;;;;;16.17;13.27;;;15.10;99.90;;;;;;5033425;28;20520;-66
2022/10/17 07:32:43;;;;;;;15.73;13.68;;;15.10;99.90;;;;;;5056811;28;20044;-66
2022/10/17 07:35:09;;;;;;;14.60;13.02;;;14.50;99.90;;;;;;5058230;28;20045;-66
2022/10/17 07:37:36;;;;;;;14.98;13.40;;;14.30;99.90;;;;;;5058948;28;20032;-64
2022/10/17 07:40:02;;;;;;;14.13;12.73;;;14.60;99.90;;;;;;5056673;28;20085;-65
2022/10/17 07:42:28;;;;;;;15.10;12.98;;;14.50;99.90;;;;;;5041738;28;20080;-65
2022/10/17 07:44:54;;;;;;;15.10;13.50;;;14.80;99.90;;;;;;5040381;28;20480;-66
2022/10/17 07:47:20;;;;;;;18.45;13.38;;;15.80;99.90;;;;;;5045273;28;20040;-65
2022/10/17 07:49:46;;;;;;;16.10;13.32;;;15.30;99.90;;;;;;5027557;28;20436;-66
2022/10/17 07:52:13;;;;;;;15.90;12.38;;;15.60;99.90;;;;;;5042971;28;20055;-64
2022/10/17 07:54:39;;;;;;;18.27;12.00;;;15.20;99.90;;;;;;5044501;28;20224;-66
2022/10/17 07:57:05;;;;;;;13.63;12.25;;;15.90;99.90;;;;;;5042846;28;20823;-64
2022/10/17 07:59:36;;;;;;;13.40;12.00;;;15.20;99.90;;;;;;5061041;28;20044;-65
2022/10/17 08:02:02;;;;;;;13.38;11.98;;;15.90;99.90;;;;;;5034777;28;20114;-66
2022/10/17 08:04:28;;;;;;;15.82;12.13;;;15.40;99.90;;;;;;5059437;28;20047;-65
2022/10/17 08:06:54;;;;;;;12.93;11.60;;;15.90;99.90;;;;;;5059376;28;20119;-65
2022/10/17 08:09:20;;;;;;;12.55;11.25;;;15.60;99.90;;;;;;5043749;28;20074;-64
2022/10/17 08:11:45;;;;;;;11.77;10.25;;;16.30;99.90;;;;;;5060248;28;20047;-65
2022/10/17 08:14:12;;;;;;;14.02;10.73;;;15.90;99.90;;;;;;5060960;28;20047;-65
2022/10/17 08:16:39;;;;;;;14.20;10.75;;;16.70;99.90;;;;;;5061128;28;20089;-65
2022/10/17 08:19:05;;;;;;;13.50;10.00;;;15.90;99.90;;;;;;5062496;28;20051;-65
2022/10/17 08:21:30;;;;;;;11.80;9.63;;;17.00;99.90;;;;;;5063643;28;20040;-66
2022/10/17 08:23:56;;;;;;;10.85;9.75;;;16.70;99.90;;;;;;5020532;28;20043;-65
2022/10/17 08:26:22;;;;;;;12.40;9.25;;;17.10;99.90;;;;;;5049165;28;20028;-65
2022/10/17 08:28:48;;;;;;;10.88;8.60;;;17.10;99.90;;;;;;5064655;28;20118;-65
2022/10/17 08:31:17;;;;;;;12.45;8.85;;;16.50;99.90;;;;;;5066204;28;20048;-65
2022/10/17 08:33:43;;;;;;;10.77;8.90;;;17.00;99.90;;;;;;5049962;28;20036;-66
2022/10/17 08:36:12;;;;;;;12.30;8.57;;;17.40;99.90;;;;;;5049572;28;20105;-65
2022/10/17 08:38:38;;;;;;;10.07;8.40;;;16.90;99.90;;;;;;5065808;28;20130;-65
2022/10/17 08:41:19;;;;;;;10.27;8.07;;;17.40;99.90;;;;;;5065930;28;20048;-67
2022/10/17 08:44:01;;;;;;;9.23;8.15;;;17.50;99.90;;;;;;5049329;28;20043;-65
2022/10/17 08:46:34;;;;;;;9.60;7.57;;;16.90;99.90;;;;;;5066332;28;20432;-65
2022/10/17 08:49:02;;;;;;;9.18;8.07;;;17.30;99.90;;;;;;5065696;28;20278;-65
2022/10/17 08:51:32;;;;;;;11.02;7.43;;;17.90;99.90;;;;;;5066357;28;20052;-65
2022/10/17 08:54:10;;;;;;;10.57;7.82;;;17.20;99.90;;;;;;5065761;28;20069;-65
2022/10/17 08:56:45;;;;;;;11.57;8.18;;;16.80;99.90;;;;;;5066150;28;20054;-66
2022/10/17 08:59:20;;;;;;;8.07;7.32;;;16.80;99.90;;;;;;5065650;28;20453;-66
2022/10/17 09:01:58;;;;;;;11.68;8.20;;;16.90;99.90;;;;;;5065598;28;20052;-66
2022/10/17 09:04:44;;;;;;;11.40;7.97;;;17.30;99.90;;;;;;5065231;28;20040;-65
2022/10/17 09:07:28;;;;;;;9.85;8.10;;;17.90;99.90;;;;;;5049280;28;20044;-66
2022/10/17 09:10:30;;;;;;;11.07;7.68;;;17.70;99.90;;;;;;5066007;28;20044;-66
2022/10/17 09:13:02;;;;;;;6.80;5.72;;;17.50;99.90;;;;;;5065502;28;20505;-66
2022/10/17 09:15:33;;;;;;;9.52;7.90;;;17.70;99.90;;;;;;5048638;28;20055;-66
2022/10/17 09:18:07;;;;;;;8.63;7.65;;;17.00;99.90;;;;;;5048368;28;20115;-66
2022/10/17 09:20:42;;;;;;;11.82;7.65;;;17.10;99.90;;;;;;5066009;28;20059;-66
2022/10/17 09:23:27;;;;;;;9.20;7.57;;;17.40;99.90;;;;;;5063864;28;20047;-66
2022/10/17 09:25:54;;;;;;;10.48;7.70;;;18.00;99.90;;;;;;5048272;28;20046;-64
2022/10/17 09:28:31;;;;;;;13.07;7.03;;;17.00;99.90;;;;;;5064753;28;20546;-67
2022/10/17 09:31:25;;;;;;;10.20;7.80;;;17.10;99.90;;;;;;5048965;28;20579;-65
2022/10/17 09:33:54;;;;;;;11.75;7.45;;;17.10;99.90;;;;;;5064771;28;20055;-69
2022/10/17 09:36:33;;;;;;;10.55;7.47;;;17.60;99.90;;;;;;5066117;28;20139;-65
2022/10/17 09:39:25;;;;;;;8.90;7.03;;;17.50;99.90;;;;;;5048672;28;20447;-65
2022/10/17 09:41:54;;;;;;;8.93;7.53;;;17.40;99.90;;;;;;5064908;28;20557;-66
2022/10/17 09:44:28;;;;;;;8.95;7.25;;;18.10;99.90;;;;;;5064238;28;20032;-67
2022/10/17 09:47:19;;;;;;;10.60;7.25;;;18.00;99.90;;;;;;5063199;28;20048;-66
2022/10/17 09:49:47;;;;;;;7.57;6.85;;;17.80;99.90;;;;;;5063914;28;20036;-65
2022/10/17 09:52:20;;;;;;;10.30;6.72;;;17.70;99.90;;;;;;5066128;28;20926;-65
2022/10/17 09:55:00;;;;;;;7.47;6.78;;;17.40;99.90;;;;;;5065719;28;20096;-65
2022/10/17 09:57:26;;;;;;;6.95;6.25;;;18.20;99.90;;;;;;5048558;28;20589;-65
2022/10/17 10:00:04;;;;;;;7.30;6.63;;;18.20;99.90;;;;;;5064556;28;20293;-66
2022/10/17 10:02:35;;;;;;;10.10;6.85;;;17.80;99.90;;;;;;5047936;28;20040;-66
2022/10/17 10:05:18;;;;;;;10.00;7.03;;;17.60;99.90;;;;;;5063226;28;20051;-64
2022/10/17 10:08:02;;;;;;;12.02;7.15;;;18.40;99.90;;;;;;5058961;28;20052;-65
2022/10/17 10:10:29;;;;;;;9.77;8.13;;;18.50;99.90;;;;;;5063361;28;20037;-67
2022/10/17 10:13:12;;;;;;;9.02;6.82;;;17.60;99.90;;;;;;5062235;28;20040;-66
2022/10/17 10:15:43;;;;;;;9.75;7.28;;;18.10;99.90;;;;;;5063469;28;20475;-65
2022/10/17 10:18:24;;;;;;;9.82;7.78;;;17.30;99.90;;;;;;5065307;28;20046;-69
2022/10/17 10:21:19;;;;;;;8.68;7.07;;;17.90;99.90;;;;;;5063444;28;20441;-65
2022/10/17 10:24:08;;;;;;;9.90;7.95;;;16.90;99.90;;;;;;5064446;28;20047;-66
2022/10/17 10:26:47;;;;;;;10.63;7.50;;;17.80;99.90;;;;;;5060576;28;20087;-67
2022/10/17 10:29:35;;;;;;;9.63;7.80;;;16.80;99.90;;;;;;5061503;28;20048;-67
2022/10/17 10:32:09;;;;;;;14.40;8.80;;;18.00;99.90;;;;;;5037527;28;20143;-66
2022/10/17 10:34:36;;;;;;;11.38;8.60;;;17.50;99.90;;;;;;5062691;28;20040;-66
2022/10/17 10:37:03;;;;;;;9.98;8.57;;;16.80;99.90;;;;;;5062125;28;20137;-67
2022/10/17 10:39:44;;;;;;;11.38;9.77;;;17.80;99.90;;;;;;5062145;28;20063;-66
2022/10/17 10:42:24;;;;;;;12.43;9.40;;;17.50;99.90;;;;;;5060018;28;20039;-66
2022/10/17 10:44:51;;;;;;;13.00;9.80;;;17.70;99.90;;;;;;5042439;28;20131;-66
2022/10/17 10:47:22;;;;;;;12.35;10.57;;;17.40;99.90;;;;;;5033532;28;20117;-66
2022/10/17 10:49:50;;;;;;;14.32;10.93;;;16.30;99.90;;;;;;5061531;28;20109;-66
2022/10/17 10:52:48;;;;;;;13.75;11.23;;;17.40;99.90;;;;;;5061593;28;20121;-65
2022/10/17 10:55:22;;;;;;;14.82;11.75;;;17.30;99.90;;;;;;5061685;28;20528;-66
2022/10/17 10:57:52;;;;;;;15.25;12.23;;;16.80;99.90;;;;;;5062477;28;20565;-66
2022/10/17 11:00:23;;;;;;;15.75;12.88;;;16.90;99.90;;;;;;5045810;28;20106;-66
2022/10/17 11:03:15;;;;;;;18.90;13.25;;;16.30;99.90;;;;;;5061696;28;20076;-66
2022/10/17 11:06:03;;;;;;;16.45;13.98;;;16.90;99.90;;;;;;5018799;28;20452;-65
2022/10/17 11:08:53;;;;;;;15.25;13.55;;;17.30;99.90;;;;;;5045719;28;20044;-66
2022/10/17 11:11:37;;;;;;;18.73;16.48;;;16.00;99.90;;;;;;5062229;28;20124;-66
2022/10/17 11:14:27;;;;;;;26.80;15.52;;;15.90;99.90;;;;;;5062081;28;20537;-66
2022/10/17 11:17:12;;;;;;;18.20;15.18;;;16.30;99.90;;;;;;5044947;28;20036;-65
2022/10/17 11:20:05;;;;;;;19.25;15.75;;;15.80;99.90;;;;;;5045602;28;20478;-66
2022/10/17 11:22:37;;;;;;;14.75;13.27;;;16.70;99.90;;;;;;5055495;28;20052;-65
2022/10/17 11:25:31;;;;;;;17.45;14.73;;;15.90;99.90;;;;;;5061662;28;20164;-66
2022/10/17 11:27:57;;;;;;;22.63;17.67;;;17.20;99.90;;;;;;5061687;28;20403;-67
2022/10/17 11:30:27;;;;;;;20.27;18.17;;;16.00;99.90;;;;;;5044838;28;20041;-65
2022/10/17 11:32:58;;;;;;;28.05;23.38;;;17.50;99.90;;;;;;5045374;28;20040;-66
2022/10/17 11:35:35;;;;;;;34.33;27.92;;;16.20;99.90;;;;;;5061482;28;20100;-65
2022/10/17 11:38:33;;;;;;;30.00;26.67;;;17.00;99.90;;;;;;5045483;28;20039;-66
2022/10/17 11:40:59;;;;;;;25.65;21.73;;;16.20;99.90;;;;;;5030808;28;20055;-66
2022/10/17 11:43:37;;;;;;;30.73;25.42;;;17.20;99.90;;;;;;5062097;28;20104;-66
2022/10/17 11:46:20;;;;;;;25.73;20.25;;;16.90;99.90;;;;;;5062134;28;20036;-65
2022/10/17 11:49:04;;;;;;;22.83;18.90;;;17.70;99.90;;;;;;5061666;28;20119;-66
2022/10/17 11:51:47;;;;;;;21.70;19.35;;;17.30;99.90;;;;;;5064662;28;20411;-65
2022/10/17 11:54:38;;;;;;;25.42;20.48;;;17.50;99.90;;;;;;5049199;28;20109;-66
2022/10/17 11:57:21;;;;;;;25.13;21.55;;;16.40;99.90;;;;;;5065553;28;20112;-66
2022/10/17 12:00:11;;;;;;;25.65;19.40;;;16.00;99.90;;;;;;5099481;28;20301;-67
2022/10/17 12:02:52;;;;;;;24.02;19.83;;;17.00;99.90;;;;;;5082247;28;20143;-66
2022/10/17 12:05:42;;;;;;;26.70;22.52;;;16.70;99.90;;;;;;5097033;28;20055;-66
2022/10/17 12:08:27;;;;;;;25.20;20.40;;;17.10;99.90;;;;;;5065230;28;20148;-65
2022/10/17 12:11:19;;;;;;;28.80;22.35;;;15.90;99.90;;;;;;5099200;28;20047;-66
2022/10/17 12:13:44;;;;;;;25.80;21.02;;;16.70;99.90;;;;;;5047062;28;20052;-67
2022/10/17 12:16:19;;;;;;;33.60;23.75;;;16.90;99.90;;;;;;5082486;28;20128;-67
2022/10/17 12:18:59;;;;;;;30.52;24.02;;;17.40;99.90;;;;;;5065374;28;20043;-67
2022/10/17 12:21:25;;;;;;;30.45;23.88;;;15.90;99.90;;;;;;5065469;28;20047;-67
2022/10/17 12:23:52;;;;;;;24.77;20.20;;;16.70;99.90;;;;;;5048946;28;20418;-67
2022/10/17 12:26:28;;;;;;;27.77;22.88;;;16.20;99.90;;;;;;5065124;28;20418;-66
2022/10/17 12:28:56;;;;;;;25.30;19.50;;;17.60;99.90;;;;;;5031979;28;20127;-66
2022/10/17 12:31:24;;;;;;;15.75;13.35;;;17.20;99.90;;;;;;5047810;28;20047;-66
2022/10/17 12:33:55;;;;;;;13.15;11.75;;;16.50;99.90;;;;;;5065139;28;20055;-66
2022/10/17 12:36:21;;;;;;;14.32;12.50;;;17.30;99.90;;;;;;5065133;28;20473;-67
2022/10/17 12:39:00;;;;;;;13.32;10.88;;;16.20;99.90;;;;;;5048491;28;20048;-68
2022/10/17 12:41:38;;;;;;;11.05;9.80;;;17.60;99.90;;;;;;5065030;28;20055;-66
2022/10/17 12:44:13;;;;;;;11.57;10.40;;;17.40;99.90;;;;;;5065208;28;20036;-67
2022/10/17 12:46:42;;;;;;;13.45;10.52;;;17.20;99.90;;;;;;5064703;28;20088;-66
2022/10/17 12:49:23;;;;;;;13.23;11.80;;;16.30;99.90;;;;;;5064542;28;20043;-66
2022/10/17 12:52:18;;;;;;;13.88;11.02;;;16.70;99.90;;;;;;5064938;28;20264;-68
2022/10/17 12:54:55;;;;;;;13.77;11.05;;;18.20;99.90;;;;;;5037892;28;20618;-67
2022/10/17 12:57:24;;;;;;;12.27;9.30;;;17.00;99.90;;;;;;5064218;28;20040;-67